PWSweather.com
Personal Weather Stations
Station Observations

OlomoucCZ

Lat: 49.5936202181, Lon: 17.2276005149

Elevation: 752

Station Type: Davis Vantage Pro 2 Activ

http://infopocasi-olomouc.cz

High Low Average
Temperature 42.8°F6.0°C 36.2°F2.3°C 40.2°F4.6°C
Dew Point 38.5°F3.6°C 32.4°F0.2°C 36.2°F2.3°C
Winds 13.8 mph 22.2 kmh 2.3 mph 3.7 kmh 6.0 mph SW9.7 kmh SW
Wind Gusts 19.6 mph31.5 kmh 3.5 mph5.6 kmh 9.0 mph14.5 kmh
Humidity 91% 81% 86%
Pressure 29.89 in1012.2 mb 29.77 in1008.1 mb -
Precipitation 0.00 in0.0 mm - -
Hour Temp Dew Point Humidity Winds Wind Gusts Pressure Precip Precip Rate Daily Precip Total
12:00 AM 39.7°F4.3°C 35.8°F2.1°C 86% 6.9 mph W11.1 kmh W 9.2 mph14.8 kmh 29.80 in1009.1 mb - 0.00 in0.0 mm 0.00 in0.0 mm
12:30 AM 39.5°F4.2°C 35.7°F2.1°C 86% 4.6 mph NNW7.4 kmh NNW 10.4 mph16.7 kmh 29.80 in1009.1 mb - 0.00 in0.0 mm 0.00 in0.0 mm
01:00 AM 39.7°F4.3°C 35.9°F2.2°C 86% 4.6 mph W7.4 kmh W 9.2 mph14.8 kmh 29.80 in1009.1 mb - 0.00 in0.0 mm 0.00 in0.0 mm
01:30 AM 40.0°F4.4°C 35.9°F2.2°C 85% 5.8 mph W9.3 kmh W 9.2 mph14.8 kmh 29.80 in1009.1 mb - 0.00 in0.0 mm 0.00 in0.0 mm
02:00 AM 40.1°F4.5°C 36.2°F2.3°C 86% 5.8 mph W9.3 kmh W 8.1 mph13.0 kmh 29.82 in1009.8 mb - 0.00 in0.0 mm 0.00 in0.0 mm
02:30 AM 40.3°F4.6°C 36.4°F2.4°C 86% 5.8 mph W9.3 kmh W 10.4 mph16.7 kmh 29.82 in1009.8 mb - 0.00 in0.0 mm 0.00 in0.0 mm
03:00 AM 40.6°F4.8°C 36.4°F2.4°C 85% 10.4 mph NW16.7 kmh NW 11.5 mph18.5 kmh 29.82 in1009.8 mb - 0.00 in0.0 mm 0.00 in0.0 mm
03:30 AM 40.5°F4.7°C 36.3°F2.4°C 85% 6.9 mph WNW11.1 kmh WNW 9.2 mph14.8 kmh 29.82 in1009.8 mb - 0.00 in0.0 mm 0.00 in0.0 mm
04:00 AM 40.2°F4.6°C 36.3°F2.4°C 86% 4.6 mph WNW7.4 kmh WNW 9.2 mph14.8 kmh 29.82 in1009.8 mb - 0.00 in0.0 mm 0.00 in0.0 mm
04:30 AM 40.3°F4.6°C 36.4°F2.4°C 86% 5.8 mph WNW9.3 kmh WNW 12.7 mph20.4 kmh 29.82 in1009.8 mb - 0.00 in0.0 mm 0.00 in0.0 mm
05:00 AM 40.1°F4.5°C 36.3°F2.4°C 86% 6.9 mph NW11.1 kmh NW 8.1 mph13.0 kmh 29.82 in1009.8 mb - 0.00 in0.0 mm 0.00 in0.0 mm
05:30 AM 39.5°F4.2°C 36.6°F2.6°C 89% 6.9 mph WNW11.1 kmh WNW 11.5 mph18.5 kmh 29.83 in1010.2 mb - 0.00 in0.0 mm 0.00 in0.0 mm
06:00 AM 39.4°F4.1°C 36.7°F2.6°C 90% 4.6 mph WNW7.4 kmh WNW 9.2 mph14.8 kmh 29.84 in1010.5 mb - 0.00 in0.0 mm 0.00 in0.0 mm
06:30 AM 39.2°F4.0°C 36.8°F2.7°C 91% 5.8 mph WNW9.3 kmh WNW 9.2 mph14.8 kmh 29.83 in1010.2 mb - 0.00 in0.0 mm 0.00 in0.0 mm
07:00 AM 39.3°F4.1°C 36.6°F2.6°C 90% 5.8 mph NW9.3 kmh NW 8.1 mph13.0 kmh 29.85 in1010.8 mb - 0.00 in0.0 mm 0.00 in0.0 mm
07:30 AM 39.5°F4.2°C 37.1°F2.8°C 91% 8.1 mph WNW13.0 kmh WNW 12.7 mph20.4 kmh 29.86 in1011.2 mb - 0.00 in0.0 mm 0.00 in0.0 mm
08:00 AM 39.7°F4.3°C 37.0°F2.8°C 90% 3.5 mph NW5.6 kmh NW 3.5 mph5.6 kmh 29.86 in1011.2 mb - 0.00 in0.0 mm 0.00 in0.0 mm
08:30 AM 40.0°F4.4°C 37.3°F2.9°C 90% 4.6 mph NW7.4 kmh NW 8.1 mph13.0 kmh 29.88 in1011.9 mb - 0.00 in0.0 mm 0.00 in0.0 mm
09:00 AM 40.1°F4.5°C 37.4°F3.0°C 90% 3.5 mph W5.6 kmh W 3.5 mph5.6 kmh 29.89 in1012.2 mb - 0.00 in0.0 mm 0.00 in0.0 mm
09:30 AM 40.2°F4.6°C 37.5°F3.1°C 90% 2.3 mph WNW3.7 kmh WNW 3.5 mph5.6 kmh 29.89 in1012.2 mb - 0.00 in0.0 mm 0.00 in0.0 mm
10:00 AM 40.3°F4.6°C 37.6°F3.1°C 90% 3.5 mph WNW5.6 kmh WNW 4.6 mph7.4 kmh 29.89 in1012.2 mb - 0.00 in0.0 mm 0.00 in0.0 mm
10:30 AM 40.7°F4.8°C 37.7°F3.2°C 89% 6.9 mph WSW11.1 kmh WSW 11.5 mph18.5 kmh 29.89 in1012.2 mb - 0.00 in0.0 mm 0.00 in0.0 mm
11:00 AM 40.9°F4.9°C 37.6°F3.1°C 88% 5.8 mph NW9.3 kmh NW 4.6 mph7.4 kmh 29.88 in1011.9 mb - 0.00 in0.0 mm 0.00 in0.0 mm
11:30 AM 41.8°F5.4°C 38.5°F3.6°C 88% 2.3 mph WNW3.7 kmh WNW 3.5 mph5.6 kmh 29.87 in1011.5 mb - 0.00 in0.0 mm 0.00 in0.0 mm
12:00 PM 42.4°F5.8°C 38.5°F3.6°C 86% 4.6 mph W7.4 kmh W 8.1 mph13.0 kmh 29.87 in1011.5 mb - 0.00 in0.0 mm 0.00 in0.0 mm
12:30 PM 42.7°F5.9°C 38.5°F3.6°C 85% 8.1 mph WNW13.0 kmh WNW 15.0 mph24.1 kmh 29.86 in1011.2 mb - 0.00 in0.0 mm 0.00 in0.0 mm
01:00 PM 42.5°F5.8°C 38.3°F3.5°C 85% 13.8 mph WNW22.2 kmh WNW 19.6 mph31.5 kmh 29.85 in1010.8 mb - 0.00 in0.0 mm 0.00 in0.0 mm
01:30 PM 42.8°F6.0°C 38.3°F3.5°C 84% 6.9 mph WSW11.1 kmh WSW 10.4 mph16.7 kmh 29.86 in1011.2 mb - 0.00 in0.0 mm 0.00 in0.0 mm
02:00 PM 42.8°F6.0°C 38.0°F3.3°C 83% 4.6 mph WSW7.4 kmh WSW 9.2 mph14.8 kmh 29.85 in1010.8 mb - 0.00 in0.0 mm 0.00 in0.0 mm
02:30 PM 42.7°F5.9°C 37.6°F3.1°C 82% 3.5 mph SW5.6 kmh SW 4.6 mph7.4 kmh 29.86 in1011.2 mb - 0.00 in0.0 mm 0.00 in0.0 mm
03:00 PM 42.5°F5.8°C 37.4°F3.0°C 82% 4.6 mph SW7.4 kmh SW 6.9 mph11.1 kmh 29.85 in1010.8 mb - 0.00 in0.0 mm 0.00 in0.0 mm
03:30 PM 42.0°F5.6°C 37.2°F2.9°C 83% 3.5 mph SSE5.6 kmh SSE 4.6 mph7.4 kmh 29.84 in1010.5 mb - 0.00 in0.0 mm 0.00 in0.0 mm
04:00 PM 41.5°F5.3°C 36.8°F2.7°C 83% 5.8 mph S9.3 kmh S 8.1 mph13.0 kmh 29.84 in1010.5 mb - 0.00 in0.0 mm 0.00 in0.0 mm
04:30 PM 41.1°F5.1°C 36.3°F2.4°C 83% 5.8 mph S9.3 kmh S 10.4 mph16.7 kmh 29.82 in1009.8 mb - 0.00 in0.0 mm 0.00 in0.0 mm
05:00 PM 40.9°F4.9°C 36.1°F2.3°C 83% 6.9 mph S11.1 kmh S 9.2 mph14.8 kmh 29.84 in1010.5 mb - 0.00 in0.0 mm 0.00 in0.0 mm
05:30 PM 40.5°F4.7°C 35.7°F2.1°C 83% 4.6 mph SSE7.4 kmh SSE 9.2 mph14.8 kmh 29.84 in1010.5 mb - 0.00 in0.0 mm 0.00 in0.0 mm
06:00 PM 40.4°F4.7°C 35.3°F1.8°C 82% 3.5 mph S5.6 kmh S 5.8 mph9.3 kmh 29.83 in1010.2 mb - 0.00 in0.0 mm 0.00 in0.0 mm
06:30 PM 40.2°F4.6°C 35.2°F1.8°C 82% 3.5 mph S5.6 kmh S 6.9 mph11.1 kmh 29.82 in1009.8 mb - 0.00 in0.0 mm 0.00 in0.0 mm
07:00 PM 40.1°F4.5°C 34.7°F1.5°C 81% 6.9 mph S11.1 kmh S 9.2 mph14.8 kmh 29.81 in1009.5 mb - 0.00 in0.0 mm 0.00 in0.0 mm
07:30 PM 39.9°F4.4°C 34.5°F1.4°C 81% 3.5 mph ESE5.6 kmh ESE 5.8 mph9.3 kmh 29.81 in1009.5 mb - 0.00 in0.0 mm 0.00 in0.0 mm
08:00 PM 39.2°F4.0°C 34.2°F1.2°C 82% 5.8 mph SE9.3 kmh SE 9.2 mph14.8 kmh 29.80 in1009.1 mb - 0.00 in0.0 mm 0.00 in0.0 mm
08:30 PM 38.8°F3.8°C 34.1°F1.2°C 83% 6.9 mph SE11.1 kmh SE 10.4 mph16.7 kmh 29.79 in1008.8 mb - 0.00 in0.0 mm 0.00 in0.0 mm
09:00 PM 38.2°F3.4°C 33.8°F1.0°C 84% 4.6 mph SE7.4 kmh SE 8.1 mph13.0 kmh 29.79 in1008.8 mb - 0.00 in0.0 mm 0.00 in0.0 mm
09:30 PM 37.8°F3.2°C 33.4°F0.8°C 84% 8.1 mph SE13.0 kmh SE 11.5 mph18.5 kmh 29.79 in1008.8 mb - 0.00 in0.0 mm 0.00 in0.0 mm
10:00 PM 37.6°F3.1°C 33.2°F0.7°C 84% 8.1 mph SE13.0 kmh SE 10.4 mph16.7 kmh 29.79 in1008.8 mb - 0.00 in0.0 mm 0.00 in0.0 mm
10:30 PM 37.0°F2.8°C 32.9°F0.5°C 85% 5.8 mph SE9.3 kmh SE 6.9 mph11.1 kmh 29.78 in1008.5 mb - 0.00 in0.0 mm 0.00 in0.0 mm
11:00 PM 36.3°F2.4°C 32.5°F0.3°C 86% 8.1 mph SE13.0 kmh SE 11.5 mph18.5 kmh 29.78 in1008.5 mb - 0.00 in0.0 mm 0.00 in0.0 mm
11:30 PM 36.2°F2.3°C 32.4°F0.2°C 86% 8.1 mph SE13.0 kmh SE 10.4 mph16.7 kmh 29.77 in1008.1 mb - 0.00 in0.0 mm 0.00 in0.0 mm